createdAt,value
2023-02-06T00:01:09.254Z,4.55
2023-02-06T00:04:09.260Z,4.55
2023-02-06T00:07:09.265Z,4.55
2023-02-06T00:10:09.276Z,4.59
2023-02-06T00:13:09.290Z,4.59
2023-02-06T00:16:09.361Z,4.59
2023-02-06T00:19:09.291Z,4.6
2023-02-06T00:22:09.293Z,4.63
2023-02-06T00:25:09.298Z,4.63
2023-02-06T00:28:09.420Z,4.63
2023-02-06T00:31:09.421Z,4.64
2023-02-06T00:34:09.351Z,4.68
2023-02-06T00:37:09.328Z,4.68
2023-02-06T00:40:09.341Z,4.68
2023-02-06T00:43:09.370Z,4.69
2023-02-06T00:46:09.358Z,4.69
2023-02-06T00:49:09.362Z,4.72
2023-02-06T00:52:09.389Z,4.72
2023-02-06T00:55:09.380Z,4.72
2023-02-06T00:58:09.381Z,4.75
2023-02-06T01:01:09.383Z,4.75
2023-02-06T01:04:09.385Z,4.74
2023-02-06T01:07:09.390Z,4.74
2023-02-06T01:10:09.529Z,4.74
2023-02-06T01:13:09.437Z,4.73
2023-02-06T01:16:09.457Z,4.73
2023-02-06T01:19:09.701Z,4.73
2023-02-06T01:22:09.408Z,4.76
2023-02-06T01:25:09.408Z,4.76
2023-02-06T01:28:09.553Z,4.77
2023-02-06T01:31:09.444Z,4.77
2023-02-06T01:34:09.421Z,4.77
2023-02-06T01:37:09.424Z,4.77
2023-02-06T01:40:09.429Z,4.77
2023-02-06T01:43:09.450Z,4.78
2023-02-06T01:46:09.461Z,4.78
2023-02-06T01:49:09.441Z,4.79
2023-02-06T01:52:09.444Z,4.79
2023-02-06T01:55:09.453Z,4.79
2023-02-06T01:58:09.464Z,4.79
2023-02-06T02:01:09.496Z,4.81
2023-02-06T02:04:09.496Z,4.81
2023-02-06T02:07:09.485Z,4.82
2023-02-06T02:10:09.494Z,4.8
2023-02-06T02:13:09.494Z,4.79
2023-02-06T02:16:09.526Z,4.81
2023-02-06T02:19:09.499Z,4.82
2023-02-06T02:22:09.535Z,4.82
2023-02-06T02:25:09.511Z,4.84
2023-02-06T02:28:09.567Z,4.85
2023-02-06T02:31:09.533Z,4.81
2023-02-06T02:34:09.525Z,4.81
2023-02-06T02:37:09.535Z,4.82
2023-02-06T02:40:09.574Z,4.82
2023-02-06T02:43:09.753Z,4.83
2023-02-06T02:46:09.598Z,4.85
2023-02-06T02:49:09.552Z,4.85
2023-02-06T02:52:09.541Z,4.85
2023-02-06T02:55:09.545Z,4.86
2023-02-06T02:58:09.584Z,4.83
2023-02-06T03:01:09.603Z,4.84
2023-02-06T03:04:09.559Z,4.84
2023-02-06T03:07:09.565Z,4.83
2023-02-06T03:10:09.561Z,4.83
2023-02-06T03:13:09.577Z,4.86
2023-02-06T03:16:09.660Z,4.87
2023-02-06T03:19:09.578Z,4.87
2023-02-06T03:22:09.599Z,4.88
2023-02-06T03:25:09.605Z,4.88
2023-02-06T03:28:09.732Z,4.87
2023-02-06T03:31:09.597Z,4.87
2023-02-06T03:34:09.627Z,4.86
2023-02-06T03:37:09.607Z,4.86
2023-02-06T03:40:09.611Z,4.86
2023-02-06T03:43:09.636Z,4.86
2023-02-06T03:46:09.681Z,4.89
2023-02-06T03:49:09.645Z,4.89
2023-02-06T03:52:09.725Z,4.88
2023-02-06T03:55:09.643Z,4.88
2023-02-06T03:58:09.658Z,4.84
2023-02-06T04:01:09.655Z,4.84
2023-02-06T04:04:09.655Z,4.83
2023-02-06T04:07:09.652Z,4.83
2023-02-06T04:10:09.683Z,4.83
2023-02-06T04:13:09.672Z,4.83
2023-02-06T04:16:09.705Z,4.82
2023-02-06T04:19:09.659Z,4.78
2023-02-06T04:22:09.665Z,4.78
2023-02-06T04:25:09.673Z,4.77
2023-02-06T04:28:09.749Z,4.77
2023-02-06T04:31:09.764Z,4.74
2023-02-06T04:34:09.697Z,4.74
2023-02-06T04:37:09.693Z,4.74
2023-02-06T04:40:09.849Z,4.74
2023-02-06T04:43:09.725Z,4.74
2023-02-06T04:46:09.777Z,4.74
2023-02-06T04:49:09.721Z,4.74
2023-02-06T04:52:09.725Z,4.78
2023-02-06T04:55:09.730Z,4.78
2023-02-06T04:58:09.733Z,4.78
2023-02-06T05:01:09.736Z,4.78
2023-02-06T05:04:09.749Z,4.78
2023-02-06T05:07:09.726Z,4.78
2023-02-06T05:10:09.732Z,4.78
2023-02-06T05:13:09.746Z,4.75
2023-02-06T05:16:09.824Z,4.74
2023-02-06T05:19:09.752Z,4.71
2023-02-06T05:22:09.783Z,4.71
2023-02-06T05:25:09.758Z,4.71
2023-02-06T05:28:09.834Z,4.71
2023-02-06T05:31:09.819Z,4.71
2023-02-06T05:34:09.767Z,4.71
2023-02-06T05:37:09.989Z,4.68
2023-02-06T05:40:09.812Z,4.68
2023-02-06T05:43:09.803Z,4.69
2023-02-06T05:46:09.836Z,4.69
2023-02-06T05:49:09.794Z,4.69
2023-02-06T05:52:09.820Z,4.69
2023-02-06T05:55:09.814Z,4.69
2023-02-06T05:58:09.848Z,4.7
2023-02-06T06:01:09.822Z,4.7
2023-02-06T06:04:09.837Z,4.7
2023-02-06T06:07:09.823Z,4.7
2023-02-06T06:10:09.829Z,4.7
2023-02-06T06:13:09.838Z,4.7
2023-02-06T06:16:09.967Z,4.7
2023-02-06T06:19:09.847Z,4.7
2023-02-06T06:22:09.848Z,4.7
2023-02-06T06:25:09.859Z,4.67
2023-02-06T06:28:09.966Z,4.67
2023-02-06T06:31:09.908Z,4.67
2023-02-06T06:34:09.881Z,4.68
2023-02-06T06:37:09.871Z,4.68
2023-02-06T06:40:09.879Z,4.68
2023-02-06T06:43:09.891Z,4.65
2023-02-06T06:46:09.914Z,4.68
2023-02-06T06:49:09.878Z,4.68
2023-02-06T06:52:19.769Z,4.68
2023-02-06T06:55:09.890Z,4.68
2023-02-06T06:58:09.903Z,4.67
2023-02-06T07:01:09.925Z,4.71
2023-02-06T07:04:09.902Z,4.71
2023-02-06T07:07:09.965Z,4.7
2023-02-06T07:10:09.952Z,4.73
2023-02-06T07:13:09.920Z,4.73
2023-02-06T07:16:09.938Z,4.72
2023-02-06T07:19:09.923Z,4.72
2023-02-06T07:22:09.934Z,4.75
2023-02-06T07:25:10.014Z,4.75
2023-02-06T07:28:10.037Z,4.74
2023-02-06T07:31:09.940Z,4.77
2023-02-06T07:34:09.943Z,4.76
2023-02-06T07:37:09.944Z,4.79
2023-02-06T07:40:09.949Z,4.79
2023-02-06T07:43:09.965Z,4.78
2023-02-06T07:46:10.040Z,4.78
2023-02-06T07:49:09.960Z,4.8
2023-02-06T07:52:09.964Z,4.8
2023-02-06T07:55:09.966Z,4.78
2023-02-06T07:58:09.984Z,4.75
2023-02-06T08:01:09.980Z,4.78
2023-02-06T08:04:10.087Z,4.78
2023-02-06T08:07:09.998Z,4.77
2023-02-06T08:10:09.994Z,4.79
2023-02-06T08:13:10.012Z,4.79
2023-02-06T08:16:10.007Z,4.78
2023-02-06T08:19:10.004Z,4.77
2023-02-06T08:22:10.068Z,4.81
2023-02-06T08:25:10.018Z,4.81
2023-02-06T08:28:10.064Z,4.78
2023-02-06T08:31:10.077Z,4.79
2023-02-06T08:34:10.030Z,4.78
2023-02-06T08:37:10.032Z,4.77
2023-02-06T08:40:10.058Z,4.8
2023-02-06T08:43:10.057Z,4.8
2023-02-06T08:46:10.044Z,4.79
2023-02-06T08:49:10.046Z,4.81
2023-02-06T08:52:10.049Z,4.81
2023-02-06T08:55:10.064Z,4.79
2023-02-06T08:58:10.086Z,4.83
2023-02-06T09:01:10.128Z,4.82
2023-02-06T09:04:10.076Z,4.81
2023-02-06T09:07:10.073Z,4.79
2023-02-06T09:10:19.020Z,4.83
2023-02-06T09:13:10.082Z,4.82
2023-02-06T09:16:10.147Z,4.85
2023-02-06T09:19:10.093Z,4.84
2023-02-06T09:22:10.096Z,4.82
2023-02-06T09:25:10.093Z,4.83
2023-02-06T09:28:10.120Z,4.83
2023-02-06T09:31:10.243Z,4.83
2023-02-06T09:34:10.132Z,4.85
2023-02-06T09:37:10.103Z,4.83
2023-02-06T09:40:10.109Z,4.83
2023-02-06T09:43:10.117Z,4.81
2023-02-06T09:46:10.120Z,4.78
2023-02-06T09:49:10.128Z,4.79
2023-02-06T09:52:10.151Z,4.82
2023-02-06T09:55:10.133Z,4.78
2023-02-06T09:58:10.129Z,4.76
2023-02-06T10:01:10.130Z,4.72
2023-02-06T10:04:10.197Z,4.76
2023-02-06T10:07:10.142Z,4.78
2023-02-06T10:10:10.281Z,4.78
2023-02-06T10:13:10.158Z,4.79
2023-02-06T10:16:11.717Z,4.79
2023-02-06T10:19:10.162Z,4.79
2023-02-06T10:22:10.166Z,4.78
2023-02-06T10:25:10.169Z,4.76
2023-02-06T10:28:10.289Z,4.79
2023-02-06T10:31:10.284Z,4.8
2023-02-06T10:34:10.181Z,4.82
2023-02-06T10:37:10.195Z,4.84
2023-02-06T10:40:10.190Z,4.84
2023-02-06T10:43:10.193Z,4.81
2023-02-06T10:46:10.405Z,4.84
2023-02-06T10:49:10.211Z,4.87
2023-02-06T10:52:10.210Z,4.81
2023-02-06T10:55:10.212Z,4.82
2023-02-06T10:58:10.210Z,4.85
2023-02-06T11:01:23.856Z,4.87
2023-02-06T11:04:10.261Z,4.89
2023-02-06T11:07:10.216Z,4.89
2023-02-06T11:10:10.223Z,4.9
2023-02-06T11:13:10.216Z,4.9
2023-02-06T11:16:10.268Z,4.86
2023-02-06T11:19:10.226Z,4.86
2023-02-06T11:22:10.264Z,4.81
2023-02-06T11:25:10.234Z,4.83
2023-02-06T11:28:10.276Z,4.79
2023-02-06T11:31:10.334Z,4.8
2023-02-06T11:34:10.251Z,4.79
2023-02-06T11:37:10.245Z,4.78
2023-02-06T11:40:10.294Z,4.82
2023-02-06T11:43:10.251Z,4.86
2023-02-06T11:46:10.290Z,4.81
2023-02-06T11:49:10.256Z,4.78
2023-02-06T11:52:10.265Z,4.81
2023-02-06T11:55:10.262Z,4.77
2023-02-06T11:58:10.342Z,4.78
2023-02-06T12:01:10.266Z,4.77
2023-02-06T12:04:10.274Z,4.8
2023-02-06T12:07:10.270Z,4.79
2023-02-06T12:10:10.273Z,4.75
2023-02-06T12:13:10.277Z,4.79
2023-02-06T12:16:10.406Z,4.79
2023-02-06T12:19:10.276Z,4.77
2023-02-06T12:22:10.282Z,4.81
2023-02-06T12:25:10.280Z,4.8
2023-02-06T12:28:10.330Z,4.78
2023-02-06T12:31:10.397Z,4.79
2023-02-06T12:34:10.307Z,4.77
2023-02-06T12:37:10.293Z,4.77
2023-02-06T12:40:10.356Z,4.76
2023-02-06T12:43:10.306Z,4.75
2023-02-06T12:46:10.452Z,4.79
2023-02-06T12:49:10.324Z,4.77
2023-02-06T12:52:10.378Z,4.76
2023-02-06T12:55:10.342Z,4.73
2023-02-06T12:58:10.352Z,4.68
2023-02-06T13:01:20.911Z,4.71
2023-02-06T13:04:10.374Z,4.73
2023-02-06T13:07:10.379Z,4.71
2023-02-06T13:10:10.454Z,4.7
2023-02-06T13:13:10.399Z,4.69
2023-02-06T13:16:10.517Z,4.69
2023-02-06T13:19:10.408Z,4.71
2023-02-06T13:22:10.424Z,4.69
2023-02-06T13:25:10.428Z,4.7
2023-02-06T13:28:10.487Z,4.72
2023-02-06T13:31:10.550Z,4.73
2023-02-06T13:34:10.446Z,4.76
2023-02-06T13:37:10.446Z,4.73
2023-02-06T13:40:10.461Z,4.76
2023-02-06T13:43:10.460Z,4.78
2023-02-06T13:46:10.528Z,4.76
2023-02-06T13:49:10.466Z,4.73
2023-02-06T13:52:10.467Z,4.74
2023-02-06T13:55:10.480Z,4.69
2023-02-06T13:58:10.485Z,4.73
2023-02-06T14:01:10.492Z,4.7
2023-02-06T14:04:10.532Z,4.69
2023-02-06T14:07:10.516Z,4.71
2023-02-06T14:10:10.520Z,4.69
2023-02-06T14:13:10.522Z,4.73
2023-02-06T14:16:10.551Z,4.74
2023-02-06T14:19:10.626Z,4.72
2023-02-06T14:22:10.556Z,4.68
2023-02-06T14:25:10.529Z,4.68
2023-02-06T14:28:10.572Z,4.68
2023-02-06T14:31:10.612Z,4.66
2023-02-06T14:34:10.534Z,4.68
2023-02-06T14:37:10.539Z,4.69
2023-02-06T14:40:10.574Z,4.67
2023-02-06T14:43:10.549Z,4.66
2023-02-06T14:46:10.543Z,4.69
2023-02-06T14:49:10.549Z,4.66
2023-02-06T14:52:10.553Z,4.63
2023-02-06T14:55:10.556Z,4.61
2023-02-06T14:58:10.597Z,4.58
2023-02-06T15:01:10.610Z,4.52
2023-02-06T15:04:10.570Z,4.51
2023-02-06T15:07:10.581Z,4.52
2023-02-06T15:10:10.593Z,4.53
2023-02-06T15:13:10.587Z,4.52
2023-02-06T15:16:10.656Z,4.52
2023-02-06T15:19:10.598Z,4.52
2023-02-06T15:22:10.602Z,4.49
2023-02-06T15:25:10.604Z,4.45
2023-02-06T15:28:10.626Z,4.44
2023-02-06T15:31:10.641Z,4.41
2023-02-06T15:34:10.647Z,4.38
2023-02-06T15:37:10.625Z,4.4
2023-02-06T15:40:10.627Z,4.37
2023-02-06T15:43:10.629Z,4.37
2023-02-06T15:46:10.702Z,4.37
2023-02-06T15:49:10.633Z,4.36
2023-02-06T15:52:10.664Z,4.38
2023-02-06T15:55:10.641Z,4.36
2023-02-06T15:58:10.654Z,4.36
2023-02-06T16:01:10.681Z,4.34
2023-02-06T16:04:10.656Z,4.31
2023-02-06T16:07:10.662Z,4.3
2023-02-06T16:10:10.701Z,4.27
2023-02-06T16:13:10.677Z,4.25
2023-02-06T16:16:10.692Z,4.22
2023-02-06T16:19:10.679Z,4.22
2023-02-06T16:22:10.684Z,4.18
2023-02-06T16:25:10.748Z,4.17
2023-02-06T16:28:10.743Z,4.14
2023-02-06T16:31:10.789Z,4.11
2023-02-06T16:34:10.700Z,4.11
2023-02-06T16:37:10.701Z,4.07
2023-02-06T16:40:10.707Z,4.04
2023-02-06T16:43:10.706Z,4.05
2023-02-06T16:46:10.775Z,4.08
2023-02-06T16:49:10.716Z,4.09
2023-02-06T16:52:10.719Z,4.05
2023-02-06T16:55:10.720Z,4.04
2023-02-06T16:58:10.727Z,4
2023-02-06T17:01:10.771Z,4
2023-02-06T17:04:10.757Z,3.99
2023-02-06T17:07:10.735Z,3.98
2023-02-06T17:10:10.743Z,3.97
2023-02-06T17:13:10.751Z,3.95
2023-02-06T17:16:10.821Z,3.92
2023-02-06T17:19:10.761Z,3.91
2023-02-06T17:22:10.785Z,3.85
2023-02-06T17:25:10.769Z,3.8
2023-02-06T17:28:10.821Z,3.79
2023-02-06T17:31:10.914Z,3.78
2023-02-06T17:34:10.792Z,3.8
2023-02-06T17:37:10.796Z,3.79
2023-02-06T17:40:10.866Z,3.79
2023-02-06T17:43:10.802Z,3.81
2023-02-06T17:46:10.874Z,3.82
2023-02-06T17:49:10.805Z,3.83
2023-02-06T17:52:10.814Z,3.85
2023-02-06T17:55:10.825Z,3.86
2023-02-06T17:58:10.901Z,3.88
2023-02-06T18:01:10.906Z,3.85
2023-02-06T18:04:10.840Z,3.77
2023-02-06T18:07:10.849Z,3.7
2023-02-06T18:10:10.842Z,3.67
2023-02-06T18:13:10.847Z,3.65
2023-02-06T18:16:10.916Z,3.63
2023-02-06T18:19:10.854Z,3.61
2023-02-06T18:22:10.860Z,3.59
2023-02-06T18:25:10.867Z,3.6
2023-02-06T18:28:10.905Z,3.61
2023-02-06T18:31:11.038Z,3.62
2023-02-06T18:34:10.901Z,3.63
2023-02-06T18:37:10.885Z,3.6
2023-02-06T18:40:10.883Z,3.6
2023-02-06T18:43:10.889Z,3.58
2023-02-06T18:46:10.921Z,3.62
2023-02-06T18:49:10.895Z,3.65
2023-02-06T18:52:10.922Z,3.71
2023-02-06T18:55:10.904Z,3.74
2023-02-06T18:58:10.918Z,3.78
2023-02-06T19:01:10.937Z,3.8
2023-02-06T19:04:10.926Z,3.83
2023-02-06T19:07:10.924Z,3.89
2023-02-06T19:10:10.958Z,3.91
2023-02-06T19:13:10.938Z,3.91
2023-02-06T19:16:10.961Z,3.91
2023-02-06T19:19:10.956Z,3.94
2023-02-06T19:22:10.956Z,3.94
2023-02-06T19:25:12.108Z,3.94
2023-02-06T19:28:10.997Z,3.9
2023-02-06T19:31:11.001Z,3.9
2023-02-06T19:34:10.973Z,3.9
2023-02-06T19:37:10.985Z,3.9
2023-02-06T19:40:10.978Z,3.9
2023-02-06T19:43:10.978Z,3.9
2023-02-06T19:46:11.012Z,3.86
2023-02-06T19:49:10.985Z,3.84
2023-02-06T19:52:10.991Z,3.83
2023-02-06T19:55:10.989Z,3.8
2023-02-06T19:58:10.994Z,3.81
2023-02-06T20:01:11.009Z,3.81
2023-02-06T20:04:11.027Z,3.75
2023-02-06T20:07:11.009Z,3.75
2023-02-06T20:10:11.008Z,3.73
2023-02-06T20:13:11.012Z,3.7
2023-02-06T20:16:11.057Z,3.7
2023-02-06T20:19:11.024Z,3.67
2023-02-06T20:22:11.050Z,3.64
2023-02-06T20:25:11.027Z,3.61
2023-02-06T20:28:11.063Z,3.56
2023-02-06T20:31:11.091Z,3.54
2023-02-06T20:34:11.042Z,3.57
2023-02-06T20:37:11.055Z,3.58
2023-02-06T20:40:11.080Z,3.58
2023-02-06T20:43:11.060Z,3.57
2023-02-06T20:46:11.104Z,3.57
2023-02-06T20:49:11.063Z,3.58
2023-02-06T20:52:11.072Z,3.56
2023-02-06T20:55:11.072Z,3.53
2023-02-06T20:58:11.106Z,3.51
2023-02-06T21:01:11.110Z,3.51
2023-02-06T21:04:11.084Z,3.48
2023-02-06T21:07:11.087Z,3.48
2023-02-06T21:10:11.098Z,3.46
2023-02-06T21:13:11.097Z,3.48
2023-02-06T21:16:13.432Z,3.49
2023-02-06T21:19:11.108Z,3.5
2023-02-06T21:22:11.109Z,3.52
2023-02-06T21:25:11.119Z,3.52
2023-02-06T21:28:11.308Z,3.5
2023-02-06T21:31:11.225Z,3.47
2023-02-06T21:34:11.162Z,3.41
2023-02-06T21:37:11.140Z,3.41
2023-02-06T21:40:11.140Z,3.42
2023-02-06T21:43:11.150Z,3.43
2023-02-06T21:46:11.196Z,3.43
2023-02-06T21:49:11.158Z,3.44
2023-02-06T21:52:11.192Z,3.47
2023-02-06T21:55:11.170Z,3.48
2023-02-06T21:58:11.168Z,3.52
2023-02-06T22:01:11.186Z,3.55
2023-02-06T22:04:11.198Z,3.59
2023-02-06T22:07:11.185Z,3.62
2023-02-06T22:10:11.214Z,3.6
2023-02-06T22:13:11.192Z,3.6
2023-02-06T22:16:11.321Z,3.58
2023-02-06T22:19:11.204Z,3.6
2023-02-06T22:22:11.198Z,3.6
2023-02-06T22:25:11.210Z,3.6
2023-02-06T22:28:11.301Z,3.61
2023-02-06T22:31:11.310Z,3.61
2023-02-06T22:34:11.212Z,3.58
2023-02-06T22:37:11.220Z,3.52
2023-02-06T22:40:11.251Z,3.46
2023-02-06T22:43:11.219Z,3.42
2023-02-06T22:46:11.273Z,3.44
2023-02-06T22:49:11.228Z,3.5
2023-02-06T22:52:11.231Z,3.54
2023-02-06T22:55:11.231Z,3.58
2023-02-06T22:58:11.237Z,3.62
2023-02-06T23:01:11.299Z,3.65
2023-02-06T23:04:11.287Z,3.68
2023-02-06T23:07:11.257Z,3.71
2023-02-06T23:10:11.260Z,3.77
2023-02-06T23:13:11.259Z,3.83
2023-02-06T23:16:11.302Z,3.88
2023-02-06T23:19:11.277Z,3.92
2023-02-06T23:22:11.298Z,3.94
2023-02-06T23:25:11.276Z,4
2023-02-06T23:28:11.301Z,4
2023-02-06T23:31:11.322Z,4.02
2023-02-06T23:34:11.283Z,4.02
2023-02-06T23:37:11.300Z,4.05
2023-02-06T23:40:11.327Z,4.04
2023-02-06T23:43:11.296Z,4.04
2023-02-06T23:46:12.316Z,4.04
2023-02-06T23:49:11.304Z,4.04
2023-02-06T23:52:11.307Z,4.06
2023-02-06T23:55:11.317Z,4.06
2023-02-06T23:58:11.347Z,4.06
